createdAt,value
2018-04-19T21:08:39.691Z,43.10
2018-04-19T21:11:09.262Z,43.70
2018-04-19T21:17:04.422Z,40.80
2018-04-19T21:19:34.719Z,42.60
2018-04-19T21:22:07.059Z,43.30
2018-04-19T21:24:37.443Z,43.40
2018-04-19T21:27:06.656Z,43.90
2018-04-19T21:29:48.996Z,44.80
2018-04-19T21:35:45.989Z,45.00
2018-04-19T21:38:16.267Z,45.90
2018-04-19T21:47:53.431Z,46.10
2018-04-19T21:50:44.854Z,45.80
2018-04-19T21:53:14.779Z,43.20
2018-04-19T21:55:44.257Z,39.10
2018-04-19T21:58:15.133Z,39.60
2018-04-19T22:00:52.152Z,40.50
2018-04-19T22:03:22.861Z,42.80
2018-04-19T22:08:50.767Z,43.80
2018-04-19T22:11:44.695Z,45.60
2018-04-19T22:14:14.101Z,47.30
2018-04-19T22:16:45.539Z,47.50
2018-04-19T22:19:16.144Z,46.30
2018-04-19T22:21:46.782Z,46.30
2018-04-19T22:24:17.880Z,46.00
2018-04-19T22:26:47.971Z,46.40
2018-04-19T22:29:19.309Z,47.00
2018-04-19T22:31:49.451Z,47.60
2018-04-19T22:34:18.661Z,48.10
2018-04-19T22:36:47.846Z,49.10
2018-04-19T22:39:17.201Z,49.60
2018-04-19T22:41:46.414Z,50.40
2018-04-19T22:44:15.714Z,50.50
2018-04-19T22:46:45.830Z,51.10
2018-04-19T22:49:15.469Z,52.00
2018-04-19T22:51:46.505Z,52.20
2018-04-19T22:54:15.856Z,52.40
2018-04-19T22:56:46.384Z,53.30
2018-04-19T22:59:15.492Z,53.20
2018-04-19T23:01:44.720Z,53.40
2018-04-19T23:04:13.936Z,54.20
2018-04-19T23:06:43.142Z,54.80
2018-04-19T23:09:12.429Z,55.40
2018-04-19T23:11:42.073Z,55.50
2018-04-19T23:14:11.291Z,55.80
2018-04-19T23:16:40.519Z,56.40
2018-04-19T23:19:09.848Z,57.40
2018-04-19T23:21:39.377Z,56.90
2018-04-19T23:24:09.744Z,57.30
2018-04-19T23:26:38.908Z,57.60
2018-04-19T23:29:08.083Z,57.90
2018-04-19T23:31:37.266Z,58.40
2018-04-19T23:34:06.666Z,58.50
2018-04-19T23:36:37.526Z,59.00
2018-04-19T23:39:07.130Z,59.00
2018-04-19T23:41:36.520Z,59.30
2018-04-19T23:44:05.823Z,58.90
2018-04-19T23:46:34.985Z,57.70
2018-04-19T23:49:04.243Z,57.70
2018-04-19T23:51:33.390Z,57.50
2018-04-19T23:54:02.487Z,58.20
2018-04-19T23:56:31.659Z,58.20
2018-04-19T23:59:01.890Z,59.90
